createdAt,value
2022-12-03T14:14:08.427Z,1.9
2022-12-03T14:15:14.823Z,2
2022-12-03T14:16:21.148Z,2
2022-12-03T14:17:27.469Z,2
2022-12-03T14:18:33.882Z,2
2022-12-03T14:19:40.218Z,2
2022-12-03T14:20:46.675Z,2
2022-12-03T14:21:52.938Z,2
2022-12-03T14:22:59.374Z,2
2022-12-03T14:24:05.587Z,2.1
2022-12-03T14:25:12.034Z,2.1
2022-12-03T14:26:18.386Z,2.1
2022-12-03T14:27:24.724Z,2
2022-12-03T14:28:31.095Z,2.1
2022-12-03T14:29:37.485Z,2.1
2022-12-03T14:30:43.858Z,2
2022-12-03T14:31:50.277Z,2
2022-12-03T14:32:56.597Z,2
2022-12-03T14:34:02.970Z,2.1
2022-12-03T14:35:09.411Z,2.1
2022-12-03T14:36:15.734Z,2.1
2022-12-03T14:37:22.116Z,2.1
2022-12-03T14:38:28.565Z,2.1
2022-12-03T14:39:34.861Z,2.1
2022-12-03T14:40:41.336Z,2.1
2022-12-03T14:41:47.679Z,2.1
2022-12-03T14:42:53.989Z,2.1
2022-12-03T14:44:00.518Z,2.1
2022-12-03T14:45:06.750Z,2.1
2022-12-03T14:46:13.125Z,2.1
2022-12-03T14:47:19.552Z,2.1
2022-12-03T14:48:25.959Z,2.1
2022-12-03T14:49:32.272Z,2.1
2022-12-03T14:50:38.657Z,2.1
2022-12-03T14:51:45.116Z,2.1
2022-12-03T14:52:51.452Z,2.1
2022-12-03T14:53:57.856Z,2.1
2022-12-03T14:55:04.177Z,2
2022-12-03T14:56:10.616Z,2.1
2022-12-03T14:57:17.063Z,2.1
2022-12-03T14:58:23.330Z,2.1
2022-12-03T14:59:29.674Z,2.1
2022-12-03T15:00:36.122Z,2.1
2022-12-03T15:01:42.417Z,2
2022-12-03T15:02:48.804Z,2
2022-12-03T15:03:55.188Z,2
2022-12-03T15:05:01.562Z,2
2022-12-03T15:06:07.915Z,2
2022-12-03T15:07:14.394Z,2
2022-12-03T15:08:20.793Z,2
2022-12-03T15:09:27.069Z,2
2022-12-03T15:10:33.411Z,2
2022-12-03T15:11:39.855Z,2
2022-12-03T15:12:46.223Z,2
2022-12-03T15:14:58.989Z,2
2022-12-03T15:16:05.295Z,2
2022-12-03T15:17:11.650Z,2
2022-12-03T15:18:18.072Z,2
2022-12-03T15:19:24.456Z,2
2022-12-03T15:20:30.942Z,2
2022-12-03T15:21:37.249Z,2
2022-12-03T15:22:43.711Z,2
2022-12-03T15:23:49.998Z,2
2022-12-03T15:24:56.380Z,2
2022-12-03T15:26:02.758Z,2
2022-12-03T15:27:09.248Z,2
2022-12-03T15:28:15.546Z,2
2022-12-03T15:29:21.950Z,2
2022-12-03T15:30:28.254Z,2
2022-12-03T15:31:34.700Z,2
2022-12-03T15:32:40.989Z,2
2022-12-03T15:33:47.385Z,2
2022-12-03T15:34:53.716Z,2
2022-12-03T15:36:00.142Z,2
2022-12-03T15:37:06.572Z,2
2022-12-03T15:38:12.955Z,2
2022-12-03T15:39:19.319Z,2
2022-12-03T15:40:25.630Z,2
2022-12-03T15:41:31.848Z,2
2022-12-03T15:42:38.389Z,2
2022-12-03T15:43:44.711Z,2
2022-12-03T15:44:51.073Z,2
2022-12-03T15:45:57.337Z,2
2022-12-03T15:47:03.863Z,2
2022-12-03T15:48:10.194Z,2
2022-12-03T15:49:16.561Z,2
2022-12-03T15:50:23.105Z,2
2022-12-03T15:51:29.188Z,2
2022-12-03T15:52:35.677Z,2
2022-12-03T15:53:42.089Z,2
2022-12-03T15:54:48.538Z,2
2022-12-03T15:55:54.841Z,2
2022-12-03T15:57:01.240Z,2
2022-12-03T15:58:07.658Z,2
2022-12-03T15:59:13.951Z,2
2022-12-03T16:00:20.231Z,2
2022-12-03T16:01:26.720Z,2
2022-12-03T16:02:33.062Z,2
2022-12-03T16:03:39.411Z,2
2022-12-03T16:04:45.879Z,2
2022-12-03T16:05:52.132Z,2
2022-12-03T16:06:58.566Z,2
2022-12-03T16:08:04.940Z,2
2022-12-03T16:09:11.317Z,2
2022-12-03T16:10:17.718Z,2
2022-12-03T16:11:23.992Z,2
2022-12-03T16:12:30.299Z,2
2022-12-03T16:13:36.658Z,2
2022-12-03T16:14:43.179Z,2
2022-12-03T16:15:49.402Z,2
2022-12-03T16:16:55.849Z,2
2022-12-03T16:18:02.314Z,2
2022-12-03T16:19:08.516Z,2
2022-12-03T16:20:14.888Z,2
2022-12-03T16:21:21.316Z,2
2022-12-03T16:22:27.744Z,2
2022-12-03T16:23:34.099Z,2
2022-12-03T16:24:40.434Z,2
2022-12-03T16:25:46.807Z,2
2022-12-03T16:26:53.255Z,2
2022-12-03T16:27:59.499Z,2
2022-12-03T16:29:05.948Z,2
2022-12-03T16:30:12.344Z,2
2022-12-03T16:31:18.734Z,2
2022-12-03T16:32:25.109Z,2
2022-12-03T16:33:31.496Z,2
2022-12-03T16:34:37.838Z,2
2022-12-03T16:35:44.257Z,1.9
2022-12-03T16:36:50.591Z,1.9
2022-12-03T16:37:56.983Z,1.9
2022-12-03T16:39:03.432Z,1.9
2022-12-03T16:40:09.813Z,1.9
2022-12-03T16:41:16.226Z,1.9
2022-12-03T16:42:22.498Z,1.9
2022-12-03T16:43:28.764Z,1.9
2022-12-03T16:44:35.259Z,1.9
2022-12-03T16:45:41.704Z,1.9
2022-12-03T16:46:47.978Z,1.9
2022-12-03T16:47:54.371Z,1.9
2022-12-03T16:49:00.754Z,1.9
2022-12-03T16:50:07.068Z,1.9
2022-12-03T16:51:13.516Z,1.9
2022-12-03T16:52:19.883Z,1.9
2022-12-03T16:53:26.171Z,1.9
2022-12-03T16:54:32.545Z,1.9
2022-12-03T16:55:38.999Z,1.9
2022-12-03T16:56:45.348Z,1.9
2022-12-03T16:57:51.699Z,1.9
2022-12-03T16:58:58.160Z,1.9
2022-12-03T17:00:04.487Z,1.9
2022-12-03T17:01:10.983Z,1.9
2022-12-03T17:02:17.349Z,1.9
2022-12-03T17:03:23.600Z,1.9
2022-12-03T17:04:30.186Z,1.9
2022-12-03T17:05:36.467Z,1.9
2022-12-03T17:06:42.834Z,1.9
2022-12-03T17:07:49.150Z,1.9
2022-12-03T17:08:55.666Z,1.9
2022-12-03T17:10:01.881Z,1.9
2022-12-03T17:11:08.244Z,1.9
2022-12-03T17:12:14.755Z,1.9
2022-12-03T17:13:21.155Z,1.9
2022-12-03T17:14:27.539Z,1.9
2022-12-03T17:15:33.896Z,1.9
2022-12-03T17:16:40.134Z,1.9
2022-12-03T17:17:46.698Z,1.9
2022-12-03T17:18:53.119Z,1.9
2022-12-03T17:19:59.257Z,1.9
2022-12-03T17:21:05.752Z,1.9
2022-12-03T17:22:12.124Z,1.9
2022-12-03T17:23:18.561Z,1.9
2022-12-03T17:24:24.879Z,1.8
2022-12-03T17:25:31.387Z,1.9
2022-12-03T17:26:37.661Z,1.9
2022-12-03T17:27:43.902Z,1.9
2022-12-03T17:28:50.420Z,1.9
2022-12-03T17:29:56.799Z,1.9
2022-12-03T17:31:03.207Z,1.9
2022-12-03T17:32:09.477Z,1.8
2022-12-03T17:33:15.895Z,1.9
2022-12-03T17:34:22.263Z,1.8
2022-12-03T17:35:28.531Z,1.8
2022-12-03T17:36:34.986Z,1.8
2022-12-03T17:37:41.290Z,1.8
2022-12-03T17:38:47.827Z,1.8
2022-12-03T17:39:54.223Z,1.8
2022-12-03T17:41:00.560Z,1.8
2022-12-03T17:42:06.969Z,1.8
2022-12-03T17:43:13.278Z,1.8
2022-12-03T17:44:19.686Z,1.8
2022-12-03T17:45:26.103Z,1.8
2022-12-03T17:46:32.447Z,1.8
2022-12-03T17:47:38.833Z,1.8
2022-12-03T17:48:45.235Z,1.8
2022-12-03T17:49:51.461Z,1.8
2022-12-03T17:50:57.929Z,1.8
2022-12-03T17:52:04.343Z,1.8
2022-12-03T17:53:10.715Z,1.8
2022-12-03T17:54:17.036Z,1.8
2022-12-03T17:55:23.488Z,1.8
2022-12-03T17:57:36.232Z,1.8
2022-12-03T17:58:42.483Z,1.8
2022-12-03T17:59:48.933Z,1.8
2022-12-03T18:00:55.382Z,1.8
2022-12-03T18:02:01.619Z,1.8
2022-12-03T18:03:08.086Z,1.8
2022-12-03T18:04:14.511Z,1.8
2022-12-03T18:05:20.855Z,1.8
2022-12-03T18:06:27.255Z,1.8
2022-12-03T18:07:33.552Z,1.8
2022-12-03T18:08:39.972Z,1.8
2022-12-03T18:09:46.368Z,1.8
2022-12-03T18:10:52.789Z,1.8
2022-12-03T18:11:59.230Z,1.8
2022-12-03T18:13:05.411Z,1.8
2022-12-03T18:14:11.940Z,1.8
2022-12-03T18:15:18.272Z,1.7
2022-12-03T18:16:24.528Z,1.7
2022-12-03T18:17:30.901Z,1.8
2022-12-03T18:18:37.441Z,1.7
2022-12-03T18:19:43.690Z,1.7
2022-12-03T18:20:50.095Z,1.7
2022-12-03T18:21:56.429Z,1.7
2022-12-03T18:23:02.935Z,1.7
2022-12-03T18:24:09.288Z,1.7
2022-12-03T18:25:15.619Z,1.7
2022-12-03T18:26:22.103Z,1.7
2022-12-03T18:27:28.418Z,1.7
2022-12-03T18:28:34.849Z,1.7
2022-12-03T18:30:47.566Z,1.7
2022-12-03T18:31:53.984Z,1.7
2022-12-03T18:33:00.229Z,1.7
2022-12-03T18:34:06.664Z,1.7
2022-12-03T18:35:13.094Z,1.7
2022-12-03T18:36:19.368Z,1.7
2022-12-03T18:37:25.742Z,1.7
2022-12-03T18:38:32.118Z,1.7
2022-12-03T18:39:38.501Z,1.7
2022-12-03T18:40:44.996Z,1.7
2022-12-03T18:41:51.409Z,1.7
2022-12-03T18:42:57.725Z,1.7
2022-12-03T18:44:04.222Z,1.7
2022-12-03T18:45:10.559Z,1.7
2022-12-03T18:46:16.804Z,1.7
2022-12-03T18:47:23.251Z,1.7
2022-12-03T18:48:29.537Z,1.7
2022-12-03T18:49:36.094Z,1.7
2022-12-03T18:50:42.440Z,1.7
2022-12-03T18:51:48.673Z,1.7
2022-12-03T18:52:55.178Z,1.7
2022-12-03T18:54:01.492Z,1.7
2022-12-03T18:55:07.945Z,1.7
2022-12-03T18:56:14.306Z,1.7
2022-12-03T18:57:20.607Z,1.7
2022-12-03T18:58:27.083Z,1.7
2022-12-03T18:59:33.522Z,1.7
2022-12-03T19:00:39.733Z,1.7
2022-12-03T19:01:46.141Z,1.7
2022-12-03T19:02:52.481Z,1.7
2022-12-03T19:03:58.897Z,1.7
2022-12-03T19:05:05.406Z,1.7
2022-12-03T19:06:11.760Z,1.7
2022-12-03T19:07:18.141Z,1.6
2022-12-03T19:08:24.370Z,1.6
2022-12-03T19:09:30.929Z,1.6
2022-12-03T19:10:37.255Z,1.6
2022-12-03T19:11:43.655Z,1.6
2022-12-03T19:12:50.058Z,1.6
2022-12-03T19:13:56.360Z,1.6
2022-12-03T19:15:02.713Z,1.6
2022-12-03T19:16:09.118Z,1.6
2022-12-03T19:17:15.464Z,1.6
2022-12-03T19:18:21.784Z,1.6
2022-12-03T19:19:28.210Z,1.6
2022-12-03T19:20:34.549Z,1.6
2022-12-03T19:21:41.085Z,1.6
2022-12-03T19:23:53.783Z,1.6
2022-12-03T19:25:00.249Z,1.6
2022-12-03T19:26:06.483Z,1.6
2022-12-03T19:27:12.872Z,1.6
2022-12-03T19:28:19.315Z,1.6
2022-12-03T19:29:25.572Z,1.6
2022-12-03T19:30:32.066Z,1.6
2022-12-03T19:31:38.337Z,1.6
2022-12-03T19:32:44.802Z,1.6
2022-12-03T19:33:51.124Z,1.6
2022-12-03T19:34:57.591Z,1.6
2022-12-03T19:36:03.857Z,1.6
2022-12-03T19:37:10.302Z,1.6
2022-12-03T19:38:16.627Z,1.6
2022-12-03T19:39:22.984Z,1.6
2022-12-03T19:40:29.483Z,1.6
2022-12-03T19:41:35.745Z,1.6
2022-12-03T19:42:42.228Z,1.6
2022-12-03T19:43:48.523Z,1.6
2022-12-03T19:44:54.966Z,1.6
2022-12-03T19:46:01.304Z,1.6
2022-12-03T19:47:07.772Z,1.6
2022-12-03T19:48:14.144Z,1.5
2022-12-03T19:49:20.536Z,1.5
2022-12-03T19:50:26.914Z,1.5
2022-12-03T19:51:33.147Z,1.5
2022-12-03T19:52:39.568Z,1.5
2022-12-03T19:53:45.935Z,1.5
2022-12-03T19:54:52.420Z,1.5
2022-12-03T19:55:58.783Z,1.5
2022-12-03T19:57:05.194Z,1.5
2022-12-03T19:58:11.441Z,1.5
2022-12-03T19:59:17.909Z,1.5
2022-12-03T20:00:24.340Z,1.5
2022-12-03T20:01:30.551Z,1.5
2022-12-03T20:02:37.010Z,1.5
2022-12-03T20:03:43.393Z,1.5
2022-12-03T20:04:49.796Z,1.5
2022-12-03T20:05:56.091Z,1.5
2022-12-03T20:07:02.470Z,1.5
2022-12-03T20:08:08.826Z,1.5
2022-12-03T20:09:15.215Z,1.5
2022-12-03T20:10:21.577Z,1.5
2022-12-03T20:11:28.025Z,1.5
2022-12-03T20:12:34.394Z,1.5
2022-12-03T20:13:40.711Z,1.5
2022-12-03T20:14:47.117Z,1.5
2022-12-03T20:15:53.505Z,1.5
2022-12-03T20:16:59.949Z,1.5
2022-12-03T20:19:12.761Z,1.5
2022-12-03T20:20:19.058Z,1.5
2022-12-03T20:21:25.419Z,1.5
2022-12-03T20:22:31.857Z,1.5
2022-12-03T20:23:38.171Z,1.5
2022-12-03T20:24:44.574Z,1.5
2022-12-03T20:25:50.946Z,1.5
2022-12-03T20:26:57.392Z,1.5
2022-12-03T20:28:03.646Z,1.5
2022-12-03T20:29:10.034Z,1.4
2022-12-03T20:30:16.515Z,1.4
2022-12-03T20:31:22.755Z,1.5
2022-12-03T20:32:29.231Z,1.4
2022-12-03T20:33:35.545Z,1.4
2022-12-03T20:34:41.928Z,1.4
2022-12-03T20:35:48.267Z,1.4
2022-12-03T20:36:54.642Z,1.4
2022-12-03T20:38:01.021Z,1.4
2022-12-03T20:39:07.555Z,1.4
2022-12-03T20:40:13.874Z,1.4
2022-12-03T20:41:20.199Z,1.4
2022-12-03T20:42:26.643Z,1.5
2022-12-03T20:43:32.932Z,1.4
2022-12-03T20:44:39.366Z,1.4
2022-12-03T20:45:45.725Z,1.4
2022-12-03T20:46:52.103Z,1.4
2022-12-03T20:47:58.589Z,1.4
2022-12-03T20:49:04.895Z,1.4
2022-12-03T20:50:11.340Z,1.4
2022-12-03T20:51:17.702Z,1.4
2022-12-03T20:52:24.079Z,1.4
2022-12-03T20:53:30.350Z,1.4
2022-12-03T20:54:36.730Z,1.4
2022-12-03T20:55:43.120Z,1.4
2022-12-03T20:56:49.610Z,1.4
2022-12-03T20:57:55.960Z,1.4
2022-12-03T20:59:02.245Z,1.4
2022-12-03T21:00:08.690Z,1.4
2022-12-03T21:01:15.001Z,1.4
2022-12-03T21:02:21.373Z,1.4
2022-12-03T21:03:27.768Z,1.4
2022-12-03T21:04:34.216Z,1.4
2022-12-03T21:05:40.596Z,1.4
2022-12-03T21:06:47.020Z,1.4
2022-12-03T21:07:53.317Z,1.4
2022-12-03T21:08:59.783Z,1.4
2022-12-03T21:10:06.071Z,1.4
2022-12-03T21:11:12.429Z,1.4
2022-12-03T21:12:18.805Z,1.4
2022-12-03T21:13:25.188Z,1.4
2022-12-03T21:14:31.608Z,1.4
2022-12-03T21:15:37.931Z,1.4
2022-12-03T21:16:44.323Z,1.4
2022-12-03T21:17:50.750Z,1.4
2022-12-03T21:18:57.081Z,1.4
2022-12-03T21:20:03.453Z,1.4
2022-12-03T21:21:09.865Z,1.4
2022-12-03T21:22:16.311Z,1.4
2022-12-03T21:23:22.597Z,1.4
2022-12-03T21:24:28.989Z,1.4
2022-12-03T21:25:35.389Z,1.4
2022-12-03T21:26:41.836Z,1.4
2022-12-03T21:27:48.181Z,1.4
2022-12-03T21:28:54.554Z,1.4
2022-12-03T21:30:01.019Z,1.4
2022-12-03T21:31:07.390Z,1.4
2022-12-03T21:32:13.704Z,1.4
2022-12-03T21:33:20.064Z,1.4
2022-12-03T21:34:26.501Z,1.4
2022-12-03T21:35:32.791Z,1.4
2022-12-03T21:36:39.265Z,1.4
2022-12-03T21:37:45.563Z,1.4
2022-12-03T21:38:51.990Z,1.4
2022-12-03T21:39:58.430Z,1.4
2022-12-03T21:41:04.706Z,1.4
2022-12-03T21:42:11.044Z,1.4
2022-12-03T21:43:17.582Z,1.4
2022-12-03T21:44:23.882Z,1.4
2022-12-03T21:45:30.329Z,1.4
2022-12-03T21:46:36.591Z,1.4
2022-12-03T21:47:42.954Z,1.4
2022-12-03T21:48:49.468Z,1.4
2022-12-03T21:49:55.727Z,1.4
2022-12-03T21:51:02.097Z,1.4
2022-12-03T21:52:08.467Z,1.4
2022-12-03T21:53:14.922Z,1.4
2022-12-03T21:54:21.234Z,1.4
2022-12-03T21:55:27.611Z,1.4
2022-12-03T21:56:34.030Z,1.4
2022-12-03T21:57:40.401Z,1.4
2022-12-03T21:58:46.760Z,1.4
2022-12-03T21:59:53.179Z,1.4
2022-12-03T22:00:59.545Z,1.4
2022-12-03T22:02:05.875Z,1.4
2022-12-03T22:03:12.260Z,1.4
2022-12-03T22:04:18.653Z,1.3
2022-12-03T22:05:25.014Z,1.4
2022-12-03T22:06:31.479Z,1.4
2022-12-03T22:07:37.823Z,1.4
2022-12-03T22:08:44.114Z,1.4
2022-12-03T22:09:50.589Z,1.4
2022-12-03T22:10:56.898Z,1.4
2022-12-03T22:12:03.333Z,1.4
2022-12-03T22:13:09.626Z,1.4
2022-12-03T22:14:16.126Z,1.4
2022-12-03T22:15:22.543Z,1.4
2022-12-03T22:16:28.863Z,1.4
2022-12-03T22:17:35.148Z,1.4
2022-12-03T22:18:41.529Z,1.4
2022-12-03T22:19:47.935Z,1.4
2022-12-03T22:20:54.275Z,1.4
2022-12-03T22:22:00.757Z,1.4
2022-12-03T22:23:07.045Z,1.4
2022-12-03T22:24:13.575Z,1.4
2022-12-03T22:25:19.879Z,1.4
2022-12-03T22:26:26.280Z,1.4
2022-12-03T22:27:32.608Z,1.4
2022-12-03T22:28:38.925Z,1.4
2022-12-03T22:29:45.313Z,1.5
2022-12-03T22:30:51.690Z,1.4
2022-12-03T22:31:58.184Z,1.4
2022-12-03T22:33:04.582Z,1.4
2022-12-03T22:34:10.942Z,1.5
2022-12-03T22:35:17.350Z,1.5
2022-12-03T22:36:23.632Z,1.5
2022-12-03T22:37:30.006Z,1.5
2022-12-03T22:38:36.423Z,1.5
2022-12-03T22:39:42.746Z,1.5
2022-12-03T22:40:49.116Z,1.5
2022-12-03T22:41:55.602Z,1.5
2022-12-03T22:43:01.958Z,1.5
2022-12-03T22:44:08.394Z,1.5
2022-12-03T22:45:14.671Z,1.5
2022-12-03T22:46:21.214Z,1.5
2022-12-03T22:47:27.486Z,1.5
2022-12-03T22:48:33.812Z,1.5
2022-12-03T22:49:40.192Z,1.5
2022-12-03T22:50:46.516Z,1.5
2022-12-03T22:51:52.877Z,1.5
2022-12-03T22:52:59.381Z,1.5
2022-12-03T22:54:05.713Z,1.5
2022-12-03T22:55:12.130Z,1.5
2022-12-03T22:56:18.444Z,1.5
2022-12-03T22:57:24.909Z,1.5
2022-12-03T22:58:31.237Z,1.5
2022-12-03T22:59:37.551Z,1.5
2022-12-03T23:00:43.935Z,1.5
2022-12-03T23:01:50.290Z,1.5
2022-12-03T23:02:56.674Z,1.5
2022-12-03T23:04:03.145Z,1.5
2022-12-03T23:05:09.577Z,1.6
2022-12-03T23:06:15.934Z,1.6
2022-12-03T23:07:22.252Z,1.5
2022-12-03T23:08:28.704Z,1.5
2022-12-03T23:09:35.124Z,1.5
2022-12-03T23:10:41.439Z,1.5
2022-12-03T23:11:47.763Z,1.5
2022-12-03T23:12:54.201Z,1.5
2022-12-03T23:14:00.551Z,1.5
2022-12-03T23:15:06.899Z,1.5
2022-12-03T23:16:13.285Z,1.5
2022-12-03T23:17:19.627Z,1.5
2022-12-03T23:18:26.098Z,1.5
2022-12-03T23:19:32.436Z,1.5
2022-12-03T23:20:38.757Z,1.5
2022-12-03T23:21:45.257Z,1.5
2022-12-03T23:22:51.487Z,1.5
2022-12-03T23:23:57.928Z,1.5
2022-12-03T23:25:04.255Z,1.5
2022-12-03T23:26:10.631Z,1.5
2022-12-03T23:27:17.115Z,1.5
2022-12-03T23:28:23.474Z,1.5
2022-12-03T23:29:29.872Z,1.5
2022-12-03T23:30:36.205Z,1.5
2022-12-03T23:31:42.554Z,1.5
2022-12-03T23:32:48.973Z,1.5
2022-12-03T23:33:55.271Z,1.5
2022-12-03T23:35:01.799Z,1.5
2022-12-03T23:36:08.034Z,1.5
2022-12-03T23:37:14.416Z,1.5
2022-12-03T23:38:20.934Z,1.6
2022-12-03T23:39:27.324Z,1.6
2022-12-03T23:40:33.547Z,1.6
2022-12-03T23:41:40.073Z,1.6
2022-12-03T23:42:46.333Z,1.6
2022-12-03T23:43:52.770Z,1.6
2022-12-03T23:44:59.069Z,1.6
2022-12-03T23:46:05.440Z,1.6
2022-12-03T23:47:11.818Z,1.6
2022-12-03T23:48:18.186Z,1.6
2022-12-03T23:49:24.603Z,1.6
2022-12-03T23:50:30.941Z,1.6
2022-12-03T23:51:37.335Z,1.6
2022-12-03T23:52:43.695Z,1.6
2022-12-03T23:53:50.132Z,1.6
2022-12-03T23:54:56.526Z,1.6
2022-12-03T23:56:02.868Z,1.6
2022-12-03T23:57:09.252Z,1.6
2022-12-03T23:58:15.587Z,1.6
2022-12-03T23:59:22.019Z,1.6
